Terminal Aerodrome Forecast
Issued by NWS North Platte, NE

Home | Current Version | Previous Version | Text Only | Print | Product List | Glossary On
Versions: 1 2 3 4 5 6 7 8 9 10 11 12 13 14
000
FTUS43 KLBF 131700
TAFVTN
TAF
KVTN 131730Z 1318/1418 20016G25KT P6SM SKC
     FM132100 25010G18KT P6SM FEW250
     FM132300 30010KT P6SM SKC
     FM140200 VRB05KT P6SM SKC
     FM141600 10007KT P6SM SCT250=

USA.gov is the U.S. government's official web portal to all federal, state and local government web resources and services.